createdAt,value
2019-03-18T00:00:13.818Z,4.21
2019-03-18T00:02:46.754Z,4.16
2019-03-18T00:05:19.798Z,4.17
2019-03-18T00:07:53.769Z,4.14
2019-03-18T00:10:30.241Z,4.11
2019-03-18T00:13:03.670Z,4.01
2019-03-18T00:15:35.527Z,4.11
2019-03-18T00:18:11.898Z,4.06
2019-03-18T00:20:47.130Z,4.08
2019-03-18T00:23:21.331Z,4.04
2019-03-18T00:25:54.650Z,4.02
2019-03-18T00:28:28.028Z,3.99
2019-03-18T00:31:01.798Z,3.95
2019-03-18T00:33:35.744Z,3.96
2019-03-18T00:36:09.304Z,4.00
2019-03-18T00:38:41.314Z,3.98
2019-03-18T00:41:13.741Z,3.95
2019-03-18T00:43:47.075Z,3.96
2019-03-18T00:46:20.492Z,3.99
2019-03-18T00:48:57.366Z,3.98
2019-03-18T00:51:30.011Z,3.96
2019-03-18T00:54:03.217Z,3.90
2019-03-18T00:56:35.604Z,3.87
2019-03-18T00:59:08.035Z,3.84
2019-03-18T01:01:40.989Z,3.71
2019-03-18T01:04:14.276Z,3.52
2019-03-18T01:06:45.894Z,3.36
2019-03-18T01:09:20.178Z,3.29
2019-03-18T01:11:54.242Z,3.37
2019-03-18T01:14:31.970Z,3.32
2019-03-18T01:17:05.995Z,3.34
2019-03-18T01:19:40.205Z,3.38
2019-03-18T01:22:13.560Z,3.46
2019-03-18T01:24:46.997Z,3.48
2019-03-18T01:27:20.562Z,3.43
2019-03-18T01:29:54.279Z,3.49
2019-03-18T01:32:27.658Z,3.40
2019-03-18T01:35:00.514Z,3.34
2019-03-18T01:37:34.161Z,3.33
2019-03-18T01:40:08.571Z,3.36
2019-03-18T01:42:41.967Z,3.38
2019-03-18T01:45:15.241Z,3.37
2019-03-18T01:47:49.395Z,3.41
2019-03-18T01:50:22.907Z,3.37
2019-03-18T01:52:54.773Z,3.32
2019-03-18T01:55:28.373Z,3.39
2019-03-18T01:58:01.943Z,3.34
2019-03-18T02:00:40.103Z,3.28
2019-03-18T02:03:13.978Z,3.34
2019-03-18T02:05:47.879Z,3.23
2019-03-18T02:08:21.196Z,3.23
2019-03-18T02:10:54.334Z,3.21
2019-03-18T02:13:27.990Z,3.19
2019-03-18T02:16:01.114Z,3.18
2019-03-18T02:18:34.347Z,3.10
2019-03-18T02:21:06.101Z,3.10
2019-03-18T02:23:39.264Z,3.10
2019-03-18T02:26:13.505Z,3.04
2019-03-18T02:28:47.427Z,3.10
2019-03-18T02:31:21.503Z,3.05
2019-03-18T02:33:54.859Z,3.10
2019-03-18T02:36:28.249Z,3.09
2019-03-18T02:39:08.284Z,3.01
2019-03-18T02:41:46.826Z,2.91
2019-03-18T02:44:21.719Z,2.88
2019-03-18T02:47:02.799Z,2.97
2019-03-18T02:49:37.560Z,3.00
2019-03-18T02:52:12.930Z,3.00
2019-03-18T02:54:48.644Z,2.82
2019-03-18T02:57:22.324Z,2.85
2019-03-18T02:59:55.390Z,2.72
2019-03-18T03:02:28.727Z,2.76
2019-03-18T03:05:01.693Z,2.69
2019-03-18T03:07:34.583Z,2.66
2019-03-18T03:10:08.927Z,2.67
2019-03-18T03:12:42.077Z,2.65
2019-03-18T03:15:15.476Z,2.61
2019-03-18T03:17:48.665Z,2.53
2019-03-18T03:20:22.139Z,2.38
2019-03-18T03:22:55.438Z,2.34
2019-03-18T03:25:28.132Z,2.25
2019-03-18T03:28:01.280Z,2.33
2019-03-18T03:30:33.751Z,2.36
2019-03-18T03:33:06.792Z,2.39
2019-03-18T03:35:41.470Z,2.35
2019-03-18T03:38:17.516Z,2.33
2019-03-18T03:40:50.635Z,2.28
2019-03-18T03:43:26.689Z,2.28
2019-03-18T03:46:00.652Z,2.35
2019-03-18T03:48:37.344Z,2.33
2019-03-18T03:51:10.308Z,2.20
2019-03-18T03:53:44.243Z,2.16
2019-03-18T03:56:17.863Z,2.14
2019-03-18T03:58:49.581Z,2.19
2019-03-18T04:01:22.362Z,2.08
2019-03-18T04:03:55.145Z,2.09
2019-03-18T04:06:28.086Z,2.04
2019-03-18T04:09:01.214Z,2.14
2019-03-18T04:11:34.082Z,2.02
2019-03-18T04:14:07.504Z,2.13
2019-03-18T04:17:00.567Z,2.10
2019-03-18T04:19:20.667Z,2.16
2019-03-18T04:21:54.675Z,2.17
2019-03-18T04:24:27.684Z,2.20
2019-03-18T04:27:01.234Z,2.04
2019-03-18T04:29:33.813Z,2.05
2019-03-18T04:32:08.218Z,2.05
2019-03-18T04:34:41.647Z,1.99
2019-03-18T04:37:14.916Z,1.96
2019-03-18T04:39:49.176Z,1.90
2019-03-18T04:42:23.169Z,1.99
2019-03-18T04:44:56.208Z,1.94
2019-03-18T04:47:29.241Z,1.88
2019-03-18T04:50:02.681Z,1.97
2019-03-18T04:52:35.977Z,2.04
2019-03-18T04:55:09.675Z,1.95
2019-03-18T04:57:43.326Z,1.88
2019-03-18T05:00:16.380Z,1.78
2019-03-18T05:02:49.394Z,1.61
2019-03-18T05:05:22.439Z,1.48
2019-03-18T05:07:54.923Z,1.45
2019-03-18T05:10:27.688Z,1.37
2019-03-18T05:13:01.617Z,1.23
2019-03-18T05:15:34.625Z,1.09
2019-03-18T05:18:06.372Z,1.05
2019-03-18T05:20:38.816Z,0.99
2019-03-18T05:23:12.074Z,0.87
2019-03-18T05:25:44.107Z,0.65
2019-03-18T05:28:17.147Z,0.54
2019-03-18T05:30:50.815Z,0.63
2019-03-18T05:33:23.580Z,0.51
2019-03-18T05:35:56.936Z,0.46
2019-03-18T05:38:29.913Z,0.44
2019-03-18T05:41:02.467Z,0.41
2019-03-18T05:43:34.865Z,0.39
2019-03-18T05:46:08.344Z,0.32
2019-03-18T05:48:41.622Z,0.34
2019-03-18T05:51:14.404Z,0.36
2019-03-18T05:53:47.549Z,0.36
2019-03-18T05:56:20.361Z,0.30
2019-03-18T05:58:53.221Z,0.22
2019-03-18T06:01:26.716Z,0.18
2019-03-18T06:03:59.925Z,0.18
2019-03-18T06:06:32.966Z,0.21
2019-03-18T06:09:05.775Z,0.19
2019-03-18T06:11:39.118Z,0.11
2019-03-18T06:14:12.078Z,0.12
2019-03-18T06:16:43.924Z,0.13
2019-03-18T06:19:16.795Z,-0.03
2019-03-18T06:21:48.575Z,0.03
2019-03-18T06:24:21.308Z,0.13
2019-03-18T06:26:54.454Z,0.15
2019-03-18T06:29:29.951Z,0.28
2019-03-18T06:32:03.888Z,0.32
2019-03-18T06:34:37.388Z,0.31
2019-03-18T06:37:10.348Z,0.64
2019-03-18T06:39:42.038Z,0.63
2019-03-18T06:42:14.553Z,0.79
2019-03-18T06:44:47.289Z,0.79
2019-03-18T06:47:20.298Z,1.06
2019-03-18T06:49:52.957Z,1.45
2019-03-18T06:52:26.741Z,1.32
2019-03-18T06:55:00.418Z,1.44
2019-03-18T06:57:33.206Z,1.47
2019-03-18T07:00:07.114Z,1.78
2019-03-18T07:02:40.957Z,1.90
2019-03-18T07:05:13.767Z,2.05
2019-03-18T07:07:47.131Z,2.23
2019-03-18T07:10:20.496Z,2.19
2019-03-18T07:12:52.746Z,2.36
2019-03-18T07:15:27.437Z,2.59
2019-03-18T07:18:00.756Z,2.87
2019-03-18T07:20:34.219Z,2.82
2019-03-18T07:23:07.725Z,2.82
2019-03-18T07:25:40.654Z,2.93
2019-03-18T07:28:13.904Z,2.92
2019-03-18T07:30:47.178Z,3.03
2019-03-18T07:33:20.654Z,3.10
2019-03-18T07:35:54.297Z,3.11
2019-03-18T07:38:27.281Z,3.09
2019-03-18T07:40:59.095Z,2.99
2019-03-18T07:43:31.913Z,3.12
2019-03-18T07:46:05.420Z,3.15
2019-03-18T07:48:39.049Z,3.12
2019-03-18T07:51:10.844Z,3.11
2019-03-18T07:53:44.437Z,3.20
2019-03-18T07:56:18.044Z,3.29
2019-03-18T07:58:50.126Z,3.48
2019-03-18T08:01:23.019Z,3.56
2019-03-18T08:03:55.095Z,3.50
2019-03-18T08:06:28.552Z,3.59
2019-03-18T08:09:01.628Z,3.62
2019-03-18T08:11:34.859Z,3.82
2019-03-18T08:14:06.292Z,3.83
2019-03-18T08:16:40.034Z,3.99
2019-03-18T08:19:12.966Z,3.95
2019-03-18T08:21:46.446Z,3.98
2019-03-18T08:24:19.846Z,4.03
2019-03-18T08:26:55.518Z,4.20
2019-03-18T08:29:29.418Z,4.20
2019-03-18T08:32:02.998Z,4.32
2019-03-18T08:34:36.766Z,4.38
2019-03-18T08:37:10.427Z,4.21
2019-03-18T08:39:44.092Z,4.35
2019-03-18T08:42:18.071Z,4.53
2019-03-18T08:44:51.374Z,4.70
2019-03-18T08:47:24.502Z,4.88
2019-03-18T08:49:57.619Z,4.84
2019-03-18T08:52:30.390Z,4.87
2019-03-18T08:55:03.748Z,5.19
2019-03-18T08:57:37.614Z,5.27
2019-03-18T09:00:12.457Z,5.31
2019-03-18T09:02:46.682Z,5.59
2019-03-18T09:05:20.276Z,5.49
2019-03-18T09:07:53.956Z,5.55
2019-03-18T09:10:26.619Z,5.48
2019-03-18T09:12:59.989Z,5.36
2019-03-18T09:15:33.080Z,5.57
2019-03-18T09:18:06.238Z,5.77
2019-03-18T09:20:39.337Z,5.73
2019-03-18T09:23:10.990Z,6.00
2019-03-18T09:25:44.021Z,5.77
2019-03-18T09:28:17.529Z,5.94
2019-03-18T09:30:48.883Z,5.97
2019-03-18T09:33:21.630Z,6.05
2019-03-18T09:35:55.439Z,5.80
2019-03-18T09:38:29.495Z,6.32
2019-03-18T09:41:03.276Z,6.54
2019-03-18T09:43:36.588Z,6.89
2019-03-18T09:46:10.131Z,7.21
2019-03-18T09:48:43.559Z,7.36
2019-03-18T09:51:16.995Z,7.97
2019-03-18T09:53:49.920Z,7.68
2019-03-18T09:56:23.190Z,7.86
2019-03-18T09:58:56.417Z,7.86
2019-03-18T10:01:29.533Z,7.96
2019-03-18T10:04:01.288Z,8.17
2019-03-18T10:06:33.834Z,8.44
2019-03-18T10:09:09.503Z,8.94
2019-03-18T10:11:43.780Z,8.88
2019-03-18T10:14:19.706Z,9.01
2019-03-18T10:16:52.774Z,9.62
2019-03-18T10:19:33.543Z,9.44
2019-03-18T10:22:01.574Z,8.96
2019-03-18T10:24:34.397Z,9.68
2019-03-18T10:27:06.928Z,9.86
2019-03-18T10:29:40.743Z,8.51
2019-03-18T10:32:14.482Z,9.77
2019-03-18T10:34:48.832Z,9.57
2019-03-18T10:37:22.908Z,9.12
2019-03-18T10:39:56.402Z,9.38
2019-03-18T10:42:29.981Z,9.28
2019-03-18T10:45:03.303Z,9.38
2019-03-18T10:47:36.196Z,9.18
2019-03-18T10:50:08.757Z,8.58
2019-03-18T10:52:41.776Z,8.96
2019-03-18T10:55:15.564Z,9.15
2019-03-18T10:57:48.853Z,8.57
2019-03-18T11:00:21.866Z,8.90
2019-03-18T11:02:53.512Z,8.93
2019-03-18T11:05:26.911Z,8.37
2019-03-18T11:08:01.167Z,8.69
2019-03-18T11:10:35.608Z,8.84
2019-03-18T11:13:09.170Z,8.74
2019-03-18T11:15:42.852Z,8.61
2019-03-18T11:18:16.525Z,8.44
2019-03-18T11:20:50.393Z,8.51
2019-03-18T11:23:23.887Z,8.58
2019-03-18T11:25:55.240Z,8.20
2019-03-18T11:28:28.940Z,7.93
2019-03-18T11:31:02.277Z,7.84
2019-03-18T11:33:35.339Z,8.06
2019-03-18T11:36:08.658Z,7.87
2019-03-18T11:38:42.561Z,8.09
2019-03-18T11:41:17.442Z,7.97
2019-03-18T11:43:51.223Z,7.42
2019-03-18T11:46:22.640Z,7.73
2019-03-18T11:48:55.845Z,7.64
2019-03-18T11:51:30.235Z,7.75
2019-03-18T11:54:03.636Z,7.37
2019-03-18T11:56:35.833Z,7.48
2019-03-18T11:59:08.223Z,7.44
2019-03-18T12:01:41.594Z,7.57
2019-03-18T12:04:14.643Z,7.57
2019-03-18T12:06:47.741Z,7.36
2019-03-18T12:09:20.520Z,7.75
2019-03-18T12:11:53.328Z,8.15
2019-03-18T12:14:27.260Z,8.06
2019-03-18T12:17:00.611Z,8.16
2019-03-18T12:19:34.357Z,8.53
2019-03-18T12:22:08.450Z,8.30
2019-03-18T12:24:45.804Z,8.82
2019-03-18T12:27:19.116Z,8.81
2019-03-18T12:29:52.618Z,8.63
2019-03-18T12:32:25.924Z,9.10
2019-03-18T12:34:59.147Z,9.08
2019-03-18T12:37:32.196Z,9.09
2019-03-18T12:40:05.654Z,9.58
2019-03-18T12:42:39.106Z,9.57
2019-03-18T12:45:11.606Z,9.20
2019-03-18T12:47:43.929Z,9.24
2019-03-18T12:50:17.554Z,9.45
2019-03-18T12:52:51.195Z,10.54
2019-03-18T12:55:24.624Z,11.12
2019-03-18T12:57:56.326Z,11.34
2019-03-18T13:00:29.196Z,10.59
2019-03-18T13:03:00.763Z,11.38
2019-03-18T13:05:33.783Z,11.10
2019-03-18T13:08:08.414Z,11.18
2019-03-18T13:10:41.802Z,11.54
2019-03-18T13:13:15.415Z,12.08
2019-03-18T13:15:50.622Z,12.44
2019-03-18T13:18:23.282Z,12.81
2019-03-18T13:21:07.247Z,12.88
2019-03-18T13:23:32.557Z,12.54
2019-03-18T13:26:06.273Z,11.90
2019-03-18T13:28:40.537Z,11.65
2019-03-18T13:31:14.240Z,10.52
2019-03-18T13:33:47.964Z,10.57
2019-03-18T13:36:21.469Z,10.80
2019-03-18T13:38:55.525Z,10.57
2019-03-18T13:41:29.927Z,10.65
2019-03-18T13:44:04.064Z,10.54
2019-03-18T13:46:37.466Z,10.69
2019-03-18T13:49:09.485Z,10.65
2019-03-18T13:51:44.955Z,10.76
2019-03-18T13:54:18.086Z,10.78
2019-03-18T13:56:51.954Z,10.54
2019-03-18T13:59:25.338Z,10.38
2019-03-18T14:01:57.474Z,10.47
2019-03-18T14:04:30.217Z,10.11
2019-03-18T14:07:01.648Z,10.26
2019-03-18T14:09:34.071Z,9.99
2019-03-18T14:12:08.628Z,10.03
2019-03-18T14:14:42.111Z,10.60
2019-03-18T14:17:15.828Z,10.14
2019-03-18T14:19:49.456Z,10.22
2019-03-18T14:22:22.545Z,10.08
2019-03-18T14:24:56.616Z,10.12
2019-03-18T14:27:30.687Z,10.01
2019-03-18T14:30:04.940Z,10.93
2019-03-18T14:32:38.445Z,10.66
2019-03-18T14:35:11.697Z,9.74
2019-03-18T14:37:44.988Z,9.79
2019-03-18T14:40:18.229Z,9.68
2019-03-18T14:42:51.625Z,9.82
2019-03-18T14:45:24.612Z,10.17
2019-03-18T14:47:57.898Z,10.53
2019-03-18T14:50:31.908Z,11.11
2019-03-18T14:53:05.395Z,10.42
2019-03-18T14:55:40.005Z,10.32
2019-03-18T14:58:14.407Z,10.29
2019-03-18T15:00:48.868Z,10.18
2019-03-18T15:03:22.717Z,10.17
2019-03-18T15:05:55.913Z,11.43
2019-03-18T15:08:29.976Z,12.55
2019-03-18T15:11:03.442Z,12.34
2019-03-18T15:13:36.924Z,12.65
2019-03-18T15:16:10.838Z,12.11
2019-03-18T15:18:44.851Z,11.19
2019-03-18T15:21:19.041Z,10.51
2019-03-18T15:23:52.792Z,10.40
2019-03-18T15:26:26.286Z,12.11
2019-03-18T15:28:59.922Z,12.28
2019-03-18T15:31:33.013Z,12.67
2019-03-18T15:34:06.166Z,12.04
2019-03-18T15:36:40.351Z,11.25
2019-03-18T15:39:14.041Z,10.78
2019-03-18T15:41:47.997Z,11.08
2019-03-18T15:44:21.880Z,9.44
2019-03-18T15:46:55.853Z,9.82
2019-03-18T15:49:29.741Z,9.64
2019-03-18T15:52:11.087Z,9.91
2019-03-18T15:54:39.389Z,9.66
2019-03-18T15:57:13.236Z,9.29
2019-03-18T15:59:47.185Z,9.19
2019-03-18T16:02:20.478Z,9.07
2019-03-18T16:04:53.051Z,8.81
2019-03-18T16:07:26.501Z,8.60
2019-03-18T16:09:59.970Z,8.51
2019-03-18T16:12:31.912Z,8.32
2019-03-18T16:15:05.290Z,8.06
2019-03-18T16:17:41.657Z,8.16
2019-03-18T16:20:16.225Z,8.05
2019-03-18T16:22:50.037Z,7.54
2019-03-18T16:25:23.948Z,7.26
2019-03-18T16:27:58.249Z,7.41
2019-03-18T16:30:31.660Z,7.30
2019-03-18T16:33:03.293Z,6.70
2019-03-18T16:35:35.682Z,7.02
2019-03-18T16:38:08.384Z,7.03
2019-03-18T16:40:42.065Z,6.83
2019-03-18T16:43:16.124Z,6.60
2019-03-18T16:45:49.579Z,6.77
2019-03-18T16:48:21.771Z,6.50
2019-03-18T16:50:54.855Z,6.58
2019-03-18T16:53:28.246Z,6.53
2019-03-18T16:56:01.229Z,6.23
2019-03-18T16:58:33.771Z,6.22
2019-03-18T17:01:07.407Z,6.22
2019-03-18T17:03:40.593Z,6.20
2019-03-18T17:06:14.048Z,5.89
2019-03-18T17:08:46.779Z,5.77
2019-03-18T17:11:20.494Z,5.73
2019-03-18T17:13:54.099Z,5.65
2019-03-18T17:16:28.431Z,5.80
2019-03-18T17:19:01.152Z,5.69
2019-03-18T17:21:35.099Z,5.69
2019-03-18T17:24:08.532Z,5.80
2019-03-18T17:26:41.072Z,5.92
2019-03-18T17:29:14.340Z,5.64
2019-03-18T17:31:45.772Z,5.66
2019-03-18T17:34:18.903Z,5.66
2019-03-18T17:36:52.612Z,5.44
2019-03-18T17:39:26.327Z,5.35
2019-03-18T17:41:59.682Z,5.28
2019-03-18T17:44:36.210Z,5.06
2019-03-18T17:47:10.393Z,5.18
2019-03-18T17:49:44.388Z,5.05
2019-03-18T17:52:18.109Z,5.10
2019-03-18T17:54:52.115Z,4.89
2019-03-18T17:57:25.112Z,4.95
2019-03-18T17:59:58.246Z,4.68
2019-03-18T18:02:30.791Z,4.61
2019-03-18T18:05:04.910Z,4.69
2019-03-18T18:07:37.984Z,4.62
2019-03-18T18:10:11.713Z,4.68
2019-03-18T18:12:44.790Z,4.45
2019-03-18T18:15:18.338Z,4.36
2019-03-18T18:17:51.855Z,4.36
2019-03-18T18:20:23.977Z,4.14
2019-03-18T18:22:56.695Z,3.88
2019-03-18T18:25:30.109Z,4.25
2019-03-18T18:28:04.230Z,4.03
2019-03-18T18:30:38.537Z,3.96
2019-03-18T18:33:12.435Z,4.16
2019-03-18T18:35:46.038Z,4.05
2019-03-18T18:38:20.676Z,3.93
2019-03-18T18:40:54.658Z,4.05
2019-03-18T18:43:29.287Z,4.01
2019-03-18T18:46:02.876Z,4.12
2019-03-18T18:48:37.037Z,4.08
2019-03-18T18:51:10.704Z,4.08
2019-03-18T18:53:45.237Z,3.92
2019-03-18T18:56:19.279Z,3.98
2019-03-18T18:58:53.075Z,3.96
2019-03-18T19:01:27.458Z,3.95
2019-03-18T19:04:03.327Z,4.11
2019-03-18T19:06:37.246Z,4.14
2019-03-18T19:09:11.605Z,4.06
2019-03-18T19:11:46.560Z,4.00
2019-03-18T19:14:21.151Z,4.00
2019-03-18T19:16:55.601Z,3.98
2019-03-18T19:19:29.031Z,4.01
2019-03-18T19:22:03.328Z,3.79
2019-03-18T19:24:37.305Z,3.74
2019-03-18T19:27:13.995Z,3.73
2019-03-18T19:29:47.919Z,3.63
2019-03-18T19:32:21.877Z,3.67
2019-03-18T19:34:55.015Z,3.58
2019-03-18T19:37:28.435Z,3.63
2019-03-18T19:40:02.276Z,3.65
2019-03-18T19:42:36.087Z,3.60
2019-03-18T19:45:11.539Z,3.48
2019-03-18T19:47:44.665Z,3.50
2019-03-18T19:50:19.302Z,3.51
2019-03-18T19:52:53.535Z,3.49
2019-03-18T19:55:27.011Z,3.51
2019-03-18T19:57:58.812Z,3.51
2019-03-18T20:00:31.627Z,3.57
2019-03-18T20:03:05.779Z,3.60
2019-03-18T20:05:39.819Z,3.72
2019-03-18T20:08:13.713Z,3.72
2019-03-18T20:10:47.891Z,3.65
2019-03-18T20:13:21.270Z,3.63
2019-03-18T20:15:54.913Z,3.65
2019-03-18T20:18:29.983Z,3.65
2019-03-18T20:21:04.356Z,3.57
2019-03-18T20:23:37.782Z,3.64
2019-03-18T20:26:09.640Z,3.67
2019-03-18T20:28:42.789Z,3.63
2019-03-18T20:31:25.422Z,3.61
2019-03-18T20:33:52.138Z,3.50
2019-03-18T20:36:26.018Z,3.53
2019-03-18T20:38:59.932Z,3.52
2019-03-18T20:41:33.371Z,3.42
2019-03-18T20:44:05.377Z,3.38
2019-03-18T20:46:38.078Z,3.34
2019-03-18T20:49:12.544Z,3.33
2019-03-18T20:51:46.286Z,3.28
2019-03-18T20:54:20.222Z,3.25
2019-03-18T20:56:54.143Z,3.34
2019-03-18T20:59:27.642Z,3.29
2019-03-18T21:02:02.393Z,3.30
2019-03-18T21:04:35.958Z,3.32
2019-03-18T21:07:09.783Z,3.41
2019-03-18T21:09:45.119Z,3.39
2019-03-18T21:12:19.454Z,3.38
2019-03-18T21:14:53.407Z,3.33
2019-03-18T21:17:27.064Z,3.41
2019-03-18T21:20:00.954Z,3.39
2019-03-18T21:22:34.528Z,3.43
2019-03-18T21:25:07.926Z,3.40
2019-03-18T21:27:41.088Z,3.42
2019-03-18T21:30:14.724Z,3.44
2019-03-18T21:32:46.238Z,3.44
2019-03-18T21:35:20.261Z,3.45
2019-03-18T21:37:53.749Z,3.43
2019-03-18T21:40:27.267Z,3.37
2019-03-18T21:43:01.019Z,3.35
2019-03-18T21:45:35.659Z,3.38
2019-03-18T21:48:09.308Z,3.33
2019-03-18T21:50:42.688Z,3.28
2019-03-18T21:53:17.262Z,3.25
2019-03-18T21:55:51.218Z,3.18
2019-03-18T21:58:24.644Z,3.13
2019-03-18T22:00:58.360Z,3.10
2019-03-18T22:03:31.689Z,3.10
2019-03-18T22:06:04.569Z,3.07
2019-03-18T22:08:38.449Z,2.94
2019-03-18T22:11:14.232Z,2.88
2019-03-18T22:13:48.133Z,2.86
2019-03-18T22:16:19.892Z,2.80
2019-03-18T22:18:55.894Z,2.74
2019-03-18T22:21:28.988Z,2.70
2019-03-18T22:24:03.553Z,2.79
2019-03-18T22:26:37.769Z,2.74
2019-03-18T22:29:12.365Z,2.71
2019-03-18T22:31:46.585Z,2.67
2019-03-18T22:34:21.682Z,2.73
2019-03-18T22:36:55.755Z,2.67
2019-03-18T22:39:34.938Z,2.57
2019-03-18T22:42:09.648Z,2.50
2019-03-18T22:44:45.875Z,2.49
2019-03-18T22:47:19.213Z,2.41
2019-03-18T22:49:52.771Z,2.37
2019-03-18T22:52:25.805Z,2.36
2019-03-18T22:55:01.914Z,2.35
2019-03-18T22:57:35.359Z,2.23
2019-03-18T23:00:20.560Z,2.30
2019-03-18T23:03:00.736Z,2.35
2019-03-18T23:05:34.480Z,2.33
2019-03-18T23:08:07.968Z,2.31
2019-03-18T23:10:42.052Z,2.28
2019-03-18T23:13:16.687Z,2.21
2019-03-18T23:15:49.734Z,2.13
2019-03-18T23:18:23.197Z,2.18
2019-03-18T23:20:58.602Z,2.14
2019-03-18T23:23:32.004Z,2.02
2019-03-18T23:26:05.812Z,1.96
2019-03-18T23:28:45.939Z,1.84
2019-03-18T23:31:21.306Z,1.70
2019-03-18T23:33:58.727Z,1.67
2019-03-18T23:36:31.586Z,1.61
2019-03-18T23:39:05.927Z,1.63
2019-03-18T23:41:40.330Z,1.71
2019-03-18T23:44:14.276Z,1.69
2019-03-18T23:46:46.934Z,1.70
2019-03-18T23:49:19.630Z,1.82
2019-03-18T23:51:53.402Z,1.75
2019-03-18T23:54:27.648Z,1.81
2019-03-18T23:57:00.660Z,1.84
